createdAt,value
2022-10-05T00:03:48.506Z,16.23
2022-10-05T00:08:56.746Z,17.30
2022-10-05T00:14:00.961Z,23.30
2022-10-05T00:19:16.741Z,17.42
2022-10-05T00:24:21.753Z,20.67
2022-10-05T00:29:26.047Z,24.83
2022-10-05T00:34:35.264Z,18.80
2022-10-05T00:39:40.624Z,19.40
2022-10-05T00:44:51.565Z,23.73
2022-10-05T00:50:30.936Z,24.65
2022-10-05T00:55:48.969Z,16.33
2022-10-05T01:01:01.650Z,11.93
2022-10-05T01:06:17.374Z,12.57
2022-10-05T01:11:30.457Z,17.42
2022-10-05T01:16:46.861Z,104.13
2022-10-05T01:22:02.481Z,72.13
2022-10-05T01:27:38.142Z,22.02
2022-10-05T01:32:51.128Z,47.90
2022-10-05T01:38:12.642Z,71.82
2022-10-05T01:43:33.940Z,53.28
2022-10-05T01:48:49.559Z,27.00
2022-10-05T01:54:06.139Z,16.88
2022-10-05T01:59:24.806Z,21.00
2022-10-05T02:10:12.802Z,25.42
2022-10-05T02:15:24.463Z,20.73
2022-10-05T02:20:36.010Z,15.30
2022-10-05T02:25:48.710Z,14.68
2022-10-05T02:31:03.609Z,16.85
2022-10-05T02:36:14.461Z,16.67
2022-10-05T02:41:32.308Z,15.43
2022-10-05T02:46:44.987Z,21.67
2022-10-05T02:51:56.464Z,11.43
2022-10-05T02:57:11.240Z,13.77
2022-10-05T03:02:27.694Z,18.30
2022-10-05T03:07:38.888Z,17.48
2022-10-05T03:12:52.984Z,20.10
2022-10-05T03:18:13.572Z,17.75
2022-10-05T03:23:35.125Z,11.85
2022-10-05T03:28:52.992Z,13.35
2022-10-05T03:34:07.746Z,13.45
2022-10-05T03:39:21.023Z,12.77
2022-10-05T03:44:38.726Z,14.05
2022-10-05T03:50:13.229Z,22.40
2022-10-05T03:55:26.430Z,18.52
2022-10-05T04:00:33.498Z,17.90
2022-10-05T04:05:50.667Z,20.65
2022-10-05T04:11:06.180Z,15.13
2022-10-05T04:16:17.109Z,14.80
2022-10-05T04:21:27.559Z,17.92
2022-10-05T04:26:39.557Z,12.63
2022-10-05T04:32:04.963Z,14.85
2022-10-05T04:37:20.460Z,14.68
2022-10-05T04:42:32.806Z,17.07
2022-10-05T04:48:08.613Z,12.57
2022-10-05T04:53:28.327Z,13.93
2022-10-05T04:58:52.925Z,8.55
2022-10-05T05:04:20.962Z,17.38
2022-10-05T05:10:12.655Z,13.70
2022-10-05T05:15:37.912Z,13.80
2022-10-05T05:20:53.188Z,18.70
2022-10-05T05:26:09.107Z,12.30
2022-10-05T05:31:29.805Z,15.43
2022-10-05T05:36:59.295Z,13.35
2022-10-05T05:42:20.749Z,8.98
2022-10-05T05:47:35.455Z,9.00
2022-10-05T05:52:44.396Z,7.47
2022-10-05T05:57:54.496Z,14.32
2022-10-05T06:03:05.970Z,11.98
2022-10-05T06:08:18.085Z,9.25
2022-10-05T06:13:30.625Z,12.30
2022-10-05T06:18:40.987Z,9.00
2022-10-05T06:23:50.089Z,10.15
2022-10-05T06:29:02.091Z,10.18
2022-10-05T06:34:18.584Z,19.55
2022-10-05T06:39:38.638Z,13.95
2022-10-05T06:44:53.611Z,10.23
2022-10-05T06:50:16.920Z,14.23
2022-10-05T06:55:43.516Z,7.75
2022-10-05T07:00:54.139Z,8.32
2022-10-05T07:06:07.687Z,8.63
2022-10-05T07:11:26.462Z,8.98
2022-10-05T07:16:40.656Z,6.03
2022-10-05T07:22:02.107Z,7.55
2022-10-05T07:27:14.523Z,9.93
2022-10-05T07:32:34.746Z,10.05
2022-10-05T07:37:57.989Z,7.32
2022-10-05T07:43:22.853Z,7.18
2022-10-05T07:48:47.146Z,5.45
2022-10-05T07:54:04.315Z,7.30
2022-10-05T07:59:16.560Z,6.70
2022-10-05T08:04:26.372Z,5.00
2022-10-05T08:09:40.695Z,11.50
2022-10-05T08:14:52.766Z,8.57
2022-10-05T08:20:06.821Z,4.38
2022-10-05T08:25:21.466Z,10.52
2022-10-05T08:30:26.143Z,6.15
2022-10-05T08:35:37.718Z,8.57
2022-10-05T08:41:07.434Z,12.13
2022-10-05T08:46:31.806Z,9.63
2022-10-05T08:52:12.382Z,5.82
2022-10-05T08:57:44.849Z,6.95
2022-10-05T09:03:12.465Z,7.20
2022-10-05T09:08:41.590Z,3.55
2022-10-05T09:14:15.644Z,8.43
2022-10-05T09:19:44.087Z,6.57
2022-10-05T09:24:59.702Z,6.30
2022-10-05T09:30:24.610Z,7.70
2022-10-05T09:35:52.597Z,7.20
2022-10-05T09:41:31.600Z,5.15
2022-10-05T09:46:51.208Z,3.63
2022-10-05T09:52:17.939Z,11.77
2022-10-05T09:58:10.438Z,5.05
2022-10-05T10:03:50.237Z,4.65
2022-10-05T10:09:27.166Z,8.10
2022-10-05T10:15:08.377Z,6.28
2022-10-05T10:20:33.184Z,3.60
2022-10-05T10:31:24.857Z,8.00
2022-10-05T10:36:57.321Z,6.35
2022-10-05T10:42:26.488Z,5.18
2022-10-05T10:48:05.141Z,4.78
2022-10-05T10:53:26.511Z,3.88
2022-10-05T10:59:09.461Z,3.90
2022-10-05T11:04:43.929Z,8.98
2022-10-05T11:10:19.932Z,7.18
2022-10-05T11:16:19.573Z,3.08
2022-10-05T11:21:45.091Z,4.35
2022-10-05T11:27:13.401Z,7.78
2022-10-05T11:32:42.343Z,3.83
2022-10-05T11:38:04.967Z,4.22
2022-10-05T11:43:42.350Z,8.30
2022-10-05T11:49:08.076Z,6.13
2022-10-05T11:54:58.400Z,4.72
2022-10-05T12:00:13.170Z,4.75
2022-10-05T12:05:22.320Z,4.40
2022-10-05T12:10:35.943Z,6.78
2022-10-05T12:15:48.528Z,6.80
2022-10-05T12:20:57.539Z,7.95
2022-10-05T12:26:06.228Z,3.88
2022-10-05T12:31:24.495Z,4.80
2022-10-05T12:36:52.427Z,5.88
2022-10-05T12:42:10.442Z,7.35
2022-10-05T12:47:23.887Z,6.47
2022-10-05T12:52:39.388Z,4.15
2022-10-05T12:57:57.755Z,5.63
2022-10-05T13:03:10.552Z,8.20
2022-10-05T13:08:21.291Z,6.65
2022-10-05T13:13:39.410Z,8.40
2022-10-05T13:18:59.088Z,4.93
2022-10-05T13:24:10.806Z,5.60
2022-10-05T13:29:20.252Z,8.38
2022-10-05T13:34:32.984Z,5.45
2022-10-05T13:39:55.544Z,8.40
2022-10-05T13:45:04.605Z,7.90
2022-10-05T13:50:18.868Z,6.40
2022-10-05T13:55:36.084Z,5.53
2022-10-05T14:00:48.036Z,7.00
2022-10-05T14:05:58.228Z,7.93
2022-10-05T14:11:25.873Z,6.50
2022-10-05T14:16:33.810Z,6.53
2022-10-05T14:21:50.978Z,16.20
2022-10-05T14:26:57.639Z,8.15
2022-10-05T14:32:04.189Z,8.77
2022-10-05T14:37:21.407Z,5.20
2022-10-05T14:42:28.113Z,12.45
2022-10-05T14:47:34.413Z,4.90
2022-10-05T14:52:41.256Z,6.72
2022-10-05T14:57:55.717Z,6.75
2022-10-05T15:03:27.658Z,12.18
2022-10-05T15:08:50.815Z,7.32
2022-10-05T15:13:57.629Z,5.13
2022-10-05T15:19:08.368Z,5.88
2022-10-05T15:24:20.240Z,5.50
2022-10-05T15:29:42.537Z,7.53
2022-10-05T15:34:56.671Z,6.63
2022-10-05T15:40:06.433Z,11.63
2022-10-05T15:45:23.561Z,13.32
2022-10-05T15:50:32.608Z,9.05
2022-10-05T15:55:51.950Z,8.02
2022-10-05T16:00:59.837Z,6.00
2022-10-05T16:06:27.797Z,7.40
2022-10-05T16:11:45.154Z,7.18
2022-10-05T16:17:05.980Z,13.52
2022-10-05T16:22:23.007Z,7.38
2022-10-05T16:27:39.699Z,8.70
2022-10-05T16:32:50.155Z,8.18
2022-10-05T16:38:05.864Z,10.15
2022-10-05T16:43:27.965Z,8.15
2022-10-05T16:48:40.846Z,10.00
2022-10-05T16:53:49.731Z,9.55
2022-10-05T16:59:06.738Z,12.77
2022-10-05T17:04:27.061Z,11.32
2022-10-05T17:10:10.203Z,10.55
2022-10-05T17:15:33.079Z,7.93
2022-10-05T17:20:47.205Z,11.07
2022-10-05T17:25:56.853Z,15.27
2022-10-05T17:31:16.653Z,7.45
2022-10-05T17:36:20.754Z,11.20
2022-10-05T17:41:26.686Z,8.93
2022-10-05T17:52:23.958Z,8.13
2022-10-05T17:57:28.308Z,13.23
2022-10-05T18:02:44.223Z,7.63
2022-10-05T18:13:19.549Z,11.57
2022-10-05T18:18:59.346Z,13.75
2022-10-05T18:24:24.289Z,10.10
2022-10-05T18:30:06.561Z,8.63
2022-10-05T18:35:16.027Z,10.05
2022-10-05T18:40:32.099Z,7.05
2022-10-05T18:45:48.318Z,11.15
2022-10-05T18:51:00.170Z,10.35
2022-10-05T18:56:17.471Z,9.00
2022-10-05T19:01:50.881Z,7.25
2022-10-05T19:07:11.516Z,11.15
2022-10-05T19:12:27.167Z,6.82
2022-10-05T19:17:47.585Z,8.10
2022-10-05T19:23:10.154Z,10.60
2022-10-05T19:28:29.031Z,12.13
2022-10-05T19:33:44.948Z,13.45
2022-10-05T19:39:00.221Z,8.38
2022-10-05T19:44:17.993Z,6.80
2022-10-05T19:49:48.939Z,7.57
2022-10-05T19:55:15.050Z,8.23
2022-10-05T20:00:26.206Z,7.40
2022-10-05T20:05:30.360Z,8.85
2022-10-05T20:10:35.152Z,9.50
2022-10-05T20:15:57.990Z,14.15
2022-10-05T20:21:01.941Z,7.32
2022-10-05T20:26:24.037Z,4.97
2022-10-05T20:31:29.442Z,7.80
2022-10-05T20:36:34.139Z,5.78
2022-10-05T20:41:38.078Z,13.00
2022-10-05T20:46:43.336Z,7.45
2022-10-05T20:51:47.550Z,8.60
2022-10-05T20:56:51.807Z,6.88
2022-10-05T21:01:59.050Z,6.72
2022-10-05T21:07:03.880Z,10.73
2022-10-05T21:12:08.075Z,8.90
2022-10-05T21:17:13.534Z,5.18
2022-10-05T21:27:21.748Z,7.30
2022-10-05T21:32:27.822Z,6.80
2022-10-05T21:42:35.604Z,9.45
2022-10-05T21:47:41.365Z,5.25
2022-10-05T21:52:45.428Z,8.93
2022-10-05T21:57:49.565Z,9.55
2022-10-05T22:02:55.194Z,8.02
2022-10-05T22:07:59.259Z,6.63
2022-10-05T22:13:04.964Z,8.77
2022-10-05T22:23:18.509Z,6.07
2022-10-05T22:28:22.469Z,10.90
2022-10-05T22:33:27.836Z,5.80
2022-10-05T22:38:32.076Z,7.75
2022-10-05T22:43:36.267Z,11.13
2022-10-05T22:48:41.763Z,10.52
2022-10-05T22:58:51.058Z,10.65
2022-10-05T23:03:57.389Z,12.65
2022-10-05T23:09:01.358Z,5.70
2022-10-05T23:14:05.249Z,5.15
2022-10-05T23:19:12.911Z,7.45
2022-10-05T23:24:16.754Z,9.52
2022-10-05T23:29:20.637Z,5.03
2022-10-05T23:34:27.380Z,6.13
2022-10-05T23:39:31.472Z,6.28
2022-10-05T23:44:35.229Z,9.38
2022-10-05T23:49:40.497Z,9.20
2022-10-05T23:54:44.612Z,8.25
2022-10-05T23:59:50.325Z,5.05
